Uvarovo, Russia
Current Conditions -  °F | °C
As of 4:30 PM on Wednesday 26 Nov 2014 (Local Time) from UUOO Reporting Station
Clear Clear  
Wind Chill: 13°   Ceiling: Unl
Heat Index: 19°   Visibility: 6mi
Dew Point:   Wind: 4mph
Humidity: 46%   Direction: NA
Pressure: 30.45"   Gusts: NA
Location:  51.99°N, 42.26°E
Report Text: UUOO 261330Z VRB02MPS CAVOK M07/M17 Q1031 NOSIG RMK 12090070
Loading
Personal Weather Stations






























Interactive Weather Map New forecast layout! Learn more

10-Day Weather Forecast

Advertisements
Track Severe Weather on mobile